sensor_id;sensor_type;location;lat;lon;timestamp;temperature;humidity
36244;DHT22;22284;49.956;19.816;2022-11-20T00:01:48;0.26;67.31
36244;DHT22;22284;49.956;19.816;2022-11-20T00:04:49;0.30;67.26
36244;DHT22;22284;49.956;19.816;2022-11-20T00:07:50;0.28;67.19
36244;DHT22;22284;49.956;19.816;2022-11-20T00:10:51;0.26;67.27
36244;DHT22;22284;49.956;19.816;2022-11-20T00:13:56;0.25;67.30
36244;DHT22;22284;49.956;19.816;2022-11-20T00:17:00;0.25;67.41
36244;DHT22;22284;49.956;19.816;2022-11-20T00:20:01;0.28;67.49
36244;DHT22;22284;49.956;19.816;2022-11-20T00:23:02;0.29;67.55
36244;DHT22;22284;49.956;19.816;2022-11-20T00:26:09;0.28;67.62
36244;DHT22;22284;49.956;19.816;2022-11-20T00:29:11;0.29;67.60
36244;DHT22;22284;49.956;19.816;2022-11-20T00:32:12;0.24;67.63
36244;DHT22;22284;49.956;19.816;2022-11-20T00:35:13;0.19;67.51
36244;DHT22;22284;49.956;19.816;2022-11-20T00:38:14;0.14;67.52
36244;DHT22;22284;49.956;19.816;2022-11-20T00:41:15;0.11;67.44
36244;DHT22;22284;49.956;19.816;2022-11-20T00:44:16;0.11;67.37
36244;DHT22;22284;49.956;19.816;2022-11-20T00:47:17;0.05;67.42
36244;DHT22;22284;49.956;19.816;2022-11-20T00:50:18;0.01;67.40
36244;DHT22;22284;49.956;19.816;2022-11-20T00:53:20;0.01;67.27
36244;DHT22;22284;49.956;19.816;2022-11-20T00:56:21;-0.02;66.85
36244;DHT22;22284;49.956;19.816;2022-11-20T00:59:22;-0.16;66.81
36244;DHT22;22284;49.956;19.816;2022-11-20T01:02:23;-0.19;67.24
36244;DHT22;22284;49.956;19.816;2022-11-20T01:05:25;-0.27;67.57
36244;DHT22;22284;49.956;19.816;2022-11-20T01:08:35;-0.33;67.68
36244;DHT22;22284;49.956;19.816;2022-11-20T01:11:40;-0.33;67.82
36244;DHT22;22284;49.956;19.816;2022-11-20T01:14:41;-0.31;67.92
36244;DHT22;22284;49.956;19.816;2022-11-20T01:17:42;-0.27;68.01
36244;DHT22;22284;49.956;19.816;2022-11-20T01:20:43;-0.23;68.06
36244;DHT22;22284;49.956;19.816;2022-11-20T01:23:45;-0.18;68.09
36244;DHT22;22284;49.956;19.816;2022-11-20T01:26:49;-0.18;68.12
36244;DHT22;22284;49.956;19.816;2022-11-20T01:29:51;-0.13;68.01
36244;DHT22;22284;49.956;19.816;2022-11-20T01:32:52;-0.13;68.01
36244;DHT22;22284;49.956;19.816;2022-11-20T01:36:02;-0.08;67.93
36244;DHT22;22284;49.956;19.816;2022-11-20T01:39:00;-0.13;67.67
36244;DHT22;22284;49.956;19.816;2022-11-20T01:42:01;-0.15;67.67
36244;DHT22;22284;49.956;19.816;2022-11-20T01:45:59;-0.18;67.59
36244;DHT22;22284;49.956;19.816;2022-11-20T01:49:11;-0.18;67.64
36244;DHT22;22284;49.956;19.816;2022-11-20T01:52:37;-0.18;67.56
36244;DHT22;22284;49.956;19.816;2022-11-20T01:55:40;-0.19;67.62
36244;DHT22;22284;49.956;19.816;2022-11-20T01:58:48;-0.19;67.52
36244;DHT22;22284;49.956;19.816;2022-11-20T02:01:48;-0.19;67.44
36244;DHT22;22284;49.956;19.816;2022-11-20T02:04:51;-0.23;67.32
36244;DHT22;22284;49.956;19.816;2022-11-20T02:07:56;-0.23;67.18
36244;DHT22;22284;49.956;19.816;2022-11-20T02:10:58;-0.25;67.07
36244;DHT22;22284;49.956;19.816;2022-11-20T02:13:59;-0.25;67.01
36244;DHT22;22284;49.956;19.816;2022-11-20T02:17:00;-0.26;66.98
36244;DHT22;22284;49.956;19.816;2022-11-20T02:20:02;-0.27;66.98
36244;DHT22;22284;49.956;19.816;2022-11-20T02:23:12;-0.29;66.87
36244;DHT22;22284;49.956;19.816;2022-11-20T02:26:16;-0.34;66.83
36244;DHT22;22284;49.956;19.816;2022-11-20T02:29:33;-0.31;66.80
36244;DHT22;22284;49.956;19.816;2022-11-20T02:32:33;-0.33;66.74
36244;DHT22;22284;49.956;19.816;2022-11-20T02:35:39;-0.34;66.60
36244;DHT22;22284;49.956;19.816;2022-11-20T02:38:42;-0.37;66.52
36244;DHT22;22284;49.956;19.816;2022-11-20T02:41:43;-0.37;66.44
36244;DHT22;22284;49.956;19.816;2022-11-20T02:44:44;-0.40;66.39
36244;DHT22;22284;49.956;19.816;2022-11-20T02:47:45;-0.41;66.38
36244;DHT22;22284;49.956;19.816;2022-11-20T02:50:46;-0.51;66.40
36244;DHT22;22284;49.956;19.816;2022-11-20T02:53:47;-0.50;66.43
36244;DHT22;22284;49.956;19.816;2022-11-20T02:56:48;-0.54;66.21
36244;DHT22;22284;49.956;19.816;2022-11-20T02:59:49;-0.55;66.41
36244;DHT22;22284;49.956;19.816;2022-11-20T03:02:50;-0.61;66.52
36244;DHT22;22284;49.956;19.816;2022-11-20T03:05:51;-0.62;66.60
36244;DHT22;22284;49.956;19.816;2022-11-20T03:08:52;-0.64;66.76
36244;DHT22;22284;49.956;19.816;2022-11-20T03:11:53;-0.69;66.92
36244;DHT22;22284;49.956;19.816;2022-11-20T03:14:54;-0.69;67.15
36244;DHT22;22284;49.956;19.816;2022-11-20T03:17:55;-0.74;67.51
36244;DHT22;22284;49.956;19.816;2022-11-20T03:20:59;-0.85;68.10
36244;DHT22;22284;49.956;19.816;2022-11-20T03:24:01;-0.88;68.48
36244;DHT22;22284;49.956;19.816;2022-11-20T03:27:02;-0.89;68.68
36244;DHT22;22284;49.956;19.816;2022-11-20T03:30:05;-0.96;68.50
36244;DHT22;22284;49.956;19.816;2022-11-20T03:33:06;-0.94;68.34
36244;DHT22;22284;49.956;19.816;2022-11-20T03:36:11;-0.93;68.58
36244;DHT22;22284;49.956;19.816;2022-11-20T03:39:13;-0.89;68.43
36244;DHT22;22284;49.956;19.816;2022-11-20T03:42:14;-0.94;68.25
36244;DHT22;22284;49.956;19.816;2022-11-20T03:45:33;-0.94;67.93
36244;DHT22;22284;49.956;19.816;2022-11-20T03:48:34;-0.96;67.62
36244;DHT22;22284;49.956;19.816;2022-11-20T03:51:35;-0.97;67.57
36244;DHT22;22284;49.956;19.816;2022-11-20T03:54:36;-1.02;67.46
36244;DHT22;22284;49.956;19.816;2022-11-20T03:57:37;-1.03;67.38
36244;DHT22;22284;49.956;19.816;2022-11-20T04:00:38;-1.02;67.22
36244;DHT22;22284;49.956;19.816;2022-11-20T04:03:41;-1.06;67.05
36244;DHT22;22284;49.956;19.816;2022-11-20T04:06:42;-1.15;67.02
36244;DHT22;22284;49.956;19.816;2022-11-20T04:09:43;-1.16;67.24
36244;DHT22;22284;49.956;19.816;2022-11-20T04:12:45;-1.15;67.40
36244;DHT22;22284;49.956;19.816;2022-11-20T04:15:46;-1.15;67.48
36244;DHT22;22284;49.956;19.816;2022-11-20T04:18:50;-1.15;68.07
36244;DHT22;22284;49.956;19.816;2022-11-20T04:21:50;-1.21;68.75
36244;DHT22;22284;49.956;19.816;2022-11-20T04:24:51;-1.28;68.85
36244;DHT22;22284;49.956;19.816;2022-11-20T04:27:52;-1.30;69.06
36244;DHT22;22284;49.956;19.816;2022-11-20T04:30:52;-1.27;69.34
36244;DHT22;22284;49.956;19.816;2022-11-20T04:33:54;-1.27;69.79
36244;DHT22;22284;49.956;19.816;2022-11-20T04:36:54;-1.30;69.78
36244;DHT22;22284;49.956;19.816;2022-11-20T04:39:55;-1.31;70.00
36244;DHT22;22284;49.956;19.816;2022-11-20T04:42:56;-1.31;70.15
36244;DHT22;22284;49.956;19.816;2022-11-20T04:45:59;-1.30;70.21
36244;DHT22;22284;49.956;19.816;2022-11-20T04:49:00;-1.31;70.19
36244;DHT22;22284;49.956;19.816;2022-11-20T04:52:01;-1.30;70.29
36244;DHT22;22284;49.956;19.816;2022-11-20T04:55:02;-1.28;70.23
36244;DHT22;22284;49.956;19.816;2022-11-20T04:58:03;-1.24;70.08
36244;DHT22;22284;49.956;19.816;2022-11-20T05:01:19;-1.21;69.93
36244;DHT22;22284;49.956;19.816;2022-11-20T05:04:16;-1.21;69.65
36244;DHT22;22284;49.956;19.816;2022-11-20T05:07:17;-1.19;69.43
36244;DHT22;22284;49.956;19.816;2022-11-20T05:10:18;-1.20;69.33
36244;DHT22;22284;49.956;19.816;2022-11-20T05:13:19;-1.17;69.35
36244;DHT22;22284;49.956;19.816;2022-11-20T05:16:24;-1.10;69.53
36244;DHT22;22284;49.956;19.816;2022-11-20T05:19:25;-1.09;69.48
36244;DHT22;22284;49.956;19.816;2022-11-20T05:22:26;-1.09;69.38
36244;DHT22;22284;49.956;19.816;2022-11-20T05:25:28;-1.04;69.19
36244;DHT22;22284;49.956;19.816;2022-11-20T05:28:30;-1.00;69.03
36244;DHT22;22284;49.956;19.816;2022-11-20T05:31:31;-0.94;68.81
36244;DHT22;22284;49.956;19.816;2022-11-20T05:34:32;-0.93;68.64
36244;DHT22;22284;49.956;19.816;2022-11-20T05:37:34;-0.89;68.44
36244;DHT22;22284;49.956;19.816;2022-11-20T05:40:35;-0.88;68.23
36244;DHT22;22284;49.956;19.816;2022-11-20T05:43:39;-0.85;67.90
36244;DHT22;22284;49.956;19.816;2022-11-20T05:46:40;-0.86;67.40
36244;DHT22;22284;49.956;19.816;2022-11-20T05:49:41;-0.88;67.10
36244;DHT22;22284;49.956;19.816;2022-11-20T05:52:42;-0.85;67.04
36244;DHT22;22284;49.956;19.816;2022-11-20T05:55:44;-0.86;66.90
36244;DHT22;22284;49.956;19.816;2022-11-20T05:58:46;-0.88;66.59
36244;DHT22;22284;49.956;19.816;2022-11-20T06:01:47;-0.88;66.41
36244;DHT22;22284;49.956;19.816;2022-11-20T06:04:48;-0.88;66.20
36244;DHT22;22284;49.956;19.816;2022-11-20T06:07:49;-0.89;66.09
36244;DHT22;22284;49.956;19.816;2022-11-20T06:10:50;-0.89;66.05
36244;DHT22;22284;49.956;19.816;2022-11-20T06:13:51;-0.85;65.99
36244;DHT22;22284;49.956;19.816;2022-11-20T06:16:52;-0.82;65.93
36244;DHT22;22284;49.956;19.816;2022-11-20T06:19:53;-0.86;65.77
36244;DHT22;22284;49.956;19.816;2022-11-20T06:22:54;-0.83;65.71
36244;DHT22;22284;49.956;19.816;2022-11-20T06:25:55;-0.82;65.57
36244;DHT22;22284;49.956;19.816;2022-11-20T06:28:57;-0.82;65.45
36244;DHT22;22284;49.956;19.816;2022-11-20T06:31:58;-0.82;65.51
36244;DHT22;22284;49.956;19.816;2022-11-20T06:34:59;-0.86;65.49
36244;DHT22;22284;49.956;19.816;2022-11-20T06:38:00;-0.82;65.42
36244;DHT22;22284;49.956;19.816;2022-11-20T06:41:00;-0.82;65.38
36244;DHT22;22284;49.956;19.816;2022-11-20T06:44:04;-0.79;65.34
36244;DHT22;22284;49.956;19.816;2022-11-20T06:47:06;-0.79;65.16
36244;DHT22;22284;49.956;19.816;2022-11-20T06:50:07;-0.82;65.15
36244;DHT22;22284;49.956;19.816;2022-11-20T06:53:08;-0.79;65.09
36244;DHT22;22284;49.956;19.816;2022-11-20T06:56:09;-0.76;64.97
36244;DHT22;22284;49.956;19.816;2022-11-20T06:59:10;-0.78;64.74
36244;DHT22;22284;49.956;19.816;2022-11-20T07:02:12;-0.79;64.87
36244;DHT22;22284;49.956;19.816;2022-11-20T07:05:13;-0.82;64.95
36244;DHT22;22284;49.956;19.816;2022-11-20T07:08:14;-0.81;65.04
36244;DHT22;22284;49.956;19.816;2022-11-20T07:11:15;-0.79;65.08
36244;DHT22;22284;49.956;19.816;2022-11-20T07:14:16;-0.82;65.00
36244;DHT22;22284;49.956;19.816;2022-11-20T07:17:17;-0.83;65.00
36244;DHT22;22284;49.956;19.816;2022-11-20T07:20:18;-0.86;64.93
36244;DHT22;22284;49.956;19.816;2022-11-20T07:23:19;-0.85;64.93
36244;DHT22;22284;49.956;19.816;2022-11-20T07:26:19;-0.83;64.97
36244;DHT22;22284;49.956;19.816;2022-11-20T07:29:20;-0.82;64.99
36244;DHT22;22284;49.956;19.816;2022-11-20T07:32:22;-0.78;65.08
36244;DHT22;22284;49.956;19.816;2022-11-20T07:35:24;-0.68;65.20
36244;DHT22;22284;49.956;19.816;2022-11-20T07:38:25;-0.62;65.47
36244;DHT22;22284;49.956;19.816;2022-11-20T07:41:26;-0.57;65.68
36244;DHT22;22284;49.956;19.816;2022-11-20T07:44:28;-0.57;65.61
36244;DHT22;22284;49.956;19.816;2022-11-20T07:47:36;-0.64;65.66
36244;DHT22;22284;49.956;19.816;2022-11-20T07:50:37;-0.65;65.78
36244;DHT22;22284;49.956;19.816;2022-11-20T07:53:38;-0.65;65.84
36244;DHT22;22284;49.956;19.816;2022-11-20T07:56:39;-0.66;65.94
36244;DHT22;22284;49.956;19.816;2022-11-20T07:59:40;-0.65;66.13
36244;DHT22;22284;49.956;19.816;2022-11-20T08:02:42;-0.62;66.28
36244;DHT22;22284;49.956;19.816;2022-11-20T08:05:43;-0.66;66.41
36244;DHT22;22284;49.956;19.816;2022-11-20T08:08:43;-0.68;66.76
36244;DHT22;22284;49.956;19.816;2022-11-20T08:11:44;-0.61;67.17
36244;DHT22;22284;49.956;19.816;2022-11-20T08:15:06;-0.54;67.26
36244;DHT22;22284;49.956;19.816;2022-11-20T08:18:11;-0.53;67.21
36244;DHT22;22284;49.956;19.816;2022-11-20T08:21:12;-0.44;67.54
36244;DHT22;22284;49.956;19.816;2022-11-20T08:24:13;-0.38;67.56
36244;DHT22;22284;49.956;19.816;2022-11-20T08:27:14;-0.29;67.90
36244;DHT22;22284;49.956;19.816;2022-11-20T08:30:15;-0.29;67.69
36244;DHT22;22284;49.956;19.816;2022-11-20T08:33:16;-0.27;67.70
36244;DHT22;22284;49.956;19.816;2022-11-20T08:36:19;-0.26;67.82
36244;DHT22;22284;49.956;19.816;2022-11-20T08:39:20;-0.19;68.14
36244;DHT22;22284;49.956;19.816;2022-11-20T08:42:21;-0.15;68.18
36244;DHT22;22284;49.956;19.816;2022-11-20T08:45:22;-0.12;68.26
36244;DHT22;22284;49.956;19.816;2022-11-20T08:48:23;-0.02;68.20
36244;DHT22;22284;49.956;19.816;2022-11-20T08:51:24;0.05;68.20
36244;DHT22;22284;49.956;19.816;2022-11-20T08:54:25;0.05;68.31
36244;DHT22;22284;49.956;19.816;2022-11-20T08:57:26;0.08;68.28
36244;DHT22;22284;49.956;19.816;2022-11-20T09:00:27;0.14;68.43
36244;DHT22;22284;49.956;19.816;2022-11-20T09:03:28;0.21;68.55
36244;DHT22;22284;49.956;19.816;2022-11-20T09:06:29;0.30;68.77
36244;DHT22;22284;49.956;19.816;2022-11-20T09:09:30;0.42;68.91
36244;DHT22;22284;49.956;19.816;2022-11-20T09:12:31;0.50;68.86
36244;DHT22;22284;49.956;19.816;2022-11-20T09:15:32;0.54;68.78
36244;DHT22;22284;49.956;19.816;2022-11-20T09:18:35;0.59;68.73
36244;DHT22;22284;49.956;19.816;2022-11-20T09:21:37;0.57;68.69
36244;DHT22;22284;49.956;19.816;2022-11-20T09:24:38;0.67;68.60
36244;DHT22;22284;49.956;19.816;2022-11-20T09:27:39;0.72;68.54
36244;DHT22;22284;49.956;19.816;2022-11-20T09:30:42;0.81;68.40
36244;DHT22;22284;49.956;19.816;2022-11-20T09:33:43;0.84;68.52
36244;DHT22;22284;49.956;19.816;2022-11-20T09:36:44;0.87;68.49
36244;DHT22;22284;49.956;19.816;2022-11-20T09:39:45;0.95;68.51
36244;DHT22;22284;49.956;19.816;2022-11-20T09:46:40;1.02;68.52
36244;DHT22;22284;49.956;19.816;2022-11-20T09:50:12;1.02;68.46
36244;DHT22;22284;49.956;19.816;2022-11-20T09:56:39;1.00;68.41
36244;DHT22;22284;49.956;19.816;2022-11-20T09:59:44;1.02;68.52
36244;DHT22;22284;49.956;19.816;2022-11-20T10:03:16;1.09;68.50
36244;DHT22;22284;49.956;19.816;2022-11-20T10:06:20;1.10;68.70
36244;DHT22;22284;49.956;19.816;2022-11-20T10:09:31;1.16;68.71
36244;DHT22;22284;49.956;19.816;2022-11-20T10:13:02;1.16;68.73
36244;DHT22;22284;49.956;19.816;2022-11-20T10:16:32;1.20;68.91
36244;DHT22;22284;49.956;19.816;2022-11-20T10:27:07;1.43;68.93
36244;DHT22;22284;49.956;19.816;2022-11-20T10:30:11;1.54;68.94
36244;DHT22;22284;49.956;19.816;2022-11-20T10:33:22;1.61;68.78
36244;DHT22;22284;49.956;19.816;2022-11-20T10:36:28;1.55;68.79
36244;DHT22;22284;49.956;19.816;2022-11-20T10:40:05;1.57;68.74
36244;DHT22;22284;49.956;19.816;2022-11-20T10:43:27;1.53;68.73
36244;DHT22;22284;49.956;19.816;2022-11-20T10:46:39;1.54;68.72
36244;DHT22;22284;49.956;19.816;2022-11-20T10:49:42;1.57;68.77
36244;DHT22;22284;49.956;19.816;2022-11-20T10:53:16;1.61;68.76
36244;DHT22;22284;49.956;19.816;2022-11-20T10:56:22;1.58;68.77
36244;DHT22;22284;49.956;19.816;2022-11-20T11:02:54;1.64;68.90
36244;DHT22;22284;49.956;19.816;2022-11-20T11:06:07;1.60;68.85
36244;DHT22;22284;49.956;19.816;2022-11-20T11:09:21;1.67;68.87
36244;DHT22;22284;49.956;19.816;2022-11-20T11:12:25;1.68;68.80
36244;DHT22;22284;49.956;19.816;2022-11-20T11:15:39;1.65;68.92
36244;DHT22;22284;49.956;19.816;2022-11-20T11:18:41;1.67;68.97
36244;DHT22;22284;49.956;19.816;2022-11-20T11:21:55;1.68;69.09
36244;DHT22;22284;49.956;19.816;2022-11-20T11:24:57;1.70;69.21
36244;DHT22;22284;49.956;19.816;2022-11-20T11:28:17;1.78;69.28
36244;DHT22;22284;49.956;19.816;2022-11-20T11:31:03;1.78;69.32
36244;DHT22;22284;49.956;19.816;2022-11-20T11:34:16;1.72;69.23
36244;DHT22;22284;49.956;19.816;2022-11-20T11:37:20;1.71;69.39
36244;DHT22;22284;49.956;19.816;2022-11-20T11:40:25;1.79;69.69
36244;DHT22;22284;49.956;19.816;2022-11-20T11:43:34;1.86;69.73
36244;DHT22;22284;49.956;19.816;2022-11-20T11:46:55;1.90;69.74
36244;DHT22;22284;49.956;19.816;2022-11-20T11:50:17;1.96;69.89
36244;DHT22;22284;49.956;19.816;2022-11-20T11:53:21;1.99;69.84
36244;DHT22;22284;49.956;19.816;2022-11-20T11:56:23;2.05;69.94
36244;DHT22;22284;49.956;19.816;2022-11-20T12:06:14;2.17;69.87
36244;DHT22;22284;49.956;19.816;2022-11-20T12:09:18;2.29;69.84
36244;DHT22;22284;49.956;19.816;2022-11-20T12:12:30;2.30;69.84
36244;DHT22;22284;49.956;19.816;2022-11-20T12:15:33;2.34;69.93
36244;DHT22;22284;49.956;19.816;2022-11-20T12:18:34;2.40;70.03
36244;DHT22;22284;49.956;19.816;2022-11-20T12:25:27;2.50;70.05
36244;DHT22;22284;49.956;19.816;2022-11-20T12:39:08;2.45;70.09
36244;DHT22;22284;49.956;19.816;2022-11-20T12:42:40;2.51;70.20
36244;DHT22;22284;49.956;19.816;2022-11-20T12:52:53;2.58;70.08
36244;DHT22;22284;49.956;19.816;2022-11-20T12:56:28;2.64;70.14
36244;DHT22;22284;49.956;19.816;2022-11-20T13:06:18;2.83;70.21
36244;DHT22;22284;49.956;19.816;2022-11-20T13:09:20;2.82;70.26
36244;DHT22;22284;49.956;19.816;2022-11-20T13:18:49;2.89;70.36
36244;DHT22;22284;49.956;19.816;2022-11-20T13:21:50;2.93;70.39
36244;DHT22;22284;49.956;19.816;2022-11-20T13:24:51;2.95;70.54
36244;DHT22;22284;49.956;19.816;2022-11-20T13:27:54;2.95;70.66
36244;DHT22;22284;49.956;19.816;2022-11-20T13:30:57;2.88;70.69
36244;DHT22;22284;49.956;19.816;2022-11-20T13:34:03;2.86;70.75
36244;DHT22;22284;49.956;19.816;2022-11-20T13:37:05;2.82;70.91
36244;DHT22;22284;49.956;19.816;2022-11-20T13:43:38;2.76;71.31
36244;DHT22;22284;49.956;19.816;2022-11-20T13:46:46;2.73;71.28
36244;DHT22;22284;49.956;19.816;2022-11-20T13:49:48;2.73;71.32
36244;DHT22;22284;49.956;19.816;2022-11-20T13:53:38;2.71;71.41
36244;DHT22;22284;49.956;19.816;2022-11-20T14:00:17;2.62;71.57
36244;DHT22;22284;49.956;19.816;2022-11-20T14:03:23;2.69;71.66
36244;DHT22;22284;49.956;19.816;2022-11-20T14:06:42;2.75;71.75
36244;DHT22;22284;49.956;19.816;2022-11-20T14:09:37;2.73;71.69
36244;DHT22;22284;49.956;19.816;2022-11-20T14:12:37;2.68;71.96
36244;DHT22;22284;49.956;19.816;2022-11-20T14:15:38;2.68;71.96
36244;DHT22;22284;49.956;19.816;2022-11-20T14:18:41;2.64;71.99
36244;DHT22;22284;49.956;19.816;2022-11-20T14:21:42;2.61;71.93
36244;DHT22;22284;49.956;19.816;2022-11-20T14:24:43;2.58;71.99
36244;DHT22;22284;49.956;19.816;2022-11-20T14:27:49;2.54;72.00
36244;DHT22;22284;49.956;19.816;2022-11-20T14:30:50;2.48;72.06
36244;DHT22;22284;49.956;19.816;2022-11-20T14:33:53;2.44;72.23
36244;DHT22;22284;49.956;19.816;2022-11-20T14:37:04;2.37;72.16
36244;DHT22;22284;49.956;19.816;2022-11-20T14:43:28;2.40;72.24
36244;DHT22;22284;49.956;19.816;2022-11-20T14:46:30;2.36;72.04
36244;DHT22;22284;49.956;19.816;2022-11-20T14:49:32;2.32;72.09
36244;DHT22;22284;49.956;19.816;2022-11-20T14:52:33;2.32;72.11
36244;DHT22;22284;49.956;19.816;2022-11-20T14:55:37;2.32;72.07
36244;DHT22;22284;49.956;19.816;2022-11-20T14:58:39;2.29;72.05
36244;DHT22;22284;49.956;19.816;2022-11-20T15:01:43;2.27;72.01
36244;DHT22;22284;49.956;19.816;2022-11-20T15:04:56;2.23;71.95
36244;DHT22;22284;49.956;19.816;2022-11-20T15:08:09;2.21;71.75
36244;DHT22;22284;49.956;19.816;2022-11-20T15:11:32;2.16;71.67
36244;DHT22;22284;49.956;19.816;2022-11-20T15:14:31;2.13;71.61
36244;DHT22;22284;49.956;19.816;2022-11-20T15:17:35;2.09;71.72
36244;DHT22;22284;49.956;19.816;2022-11-20T15:20:38;2.03;71.83
36244;DHT22;22284;49.956;19.816;2022-11-20T15:23:38;2.02;71.92
36244;DHT22;22284;49.956;19.816;2022-11-20T15:26:39;2.02;72.07
36244;DHT22;22284;49.956;19.816;2022-11-20T15:29:41;2.00;72.08
36244;DHT22;22284;49.956;19.816;2022-11-20T15:32:43;2.02;72.11
36244;DHT22;22284;49.956;19.816;2022-11-20T15:35:44;2.02;72.10
36244;DHT22;22284;49.956;19.816;2022-11-20T15:38:46;2.03;72.23
36244;DHT22;22284;49.956;19.816;2022-11-20T15:41:47;2.02;72.20
36244;DHT22;22284;49.956;19.816;2022-11-20T15:44:48;2.03;72.34
36244;DHT22;22284;49.956;19.816;2022-11-20T15:47:49;2.00;72.47
36244;DHT22;22284;49.956;19.816;2022-11-20T15:54:15;2.09;73.14
36244;DHT22;22284;49.956;19.816;2022-11-20T15:57:18;2.06;72.98
36244;DHT22;22284;49.956;19.816;2022-11-20T16:00:19;2.05;72.91
36244;DHT22;22284;49.956;19.816;2022-11-20T16:03:20;2.03;72.76
36244;DHT22;22284;49.956;19.816;2022-11-20T16:06:21;1.99;72.78
36244;DHT22;22284;49.956;19.816;2022-11-20T16:09:22;2.02;72.79
36244;DHT22;22284;49.956;19.816;2022-11-20T16:12:23;2.00;72.73
36244;DHT22;22284;49.956;19.816;2022-11-20T16:15:47;2.03;72.75
36244;DHT22;22284;49.956;19.816;2022-11-20T16:18:49;2.05;72.80
36244;DHT22;22284;49.956;19.816;2022-11-20T16:21:50;2.09;72.81
36244;DHT22;22284;49.956;19.816;2022-11-20T16:24:51;2.13;72.88
36244;DHT22;22284;49.956;19.816;2022-11-20T16:27:52;2.17;72.84
36244;DHT22;22284;49.956;19.816;2022-11-20T16:30:53;2.24;72.83
36244;DHT22;22284;49.956;19.816;2022-11-20T16:33:57;2.27;72.83
36244;DHT22;22284;49.956;19.816;2022-11-20T16:36:58;2.33;72.83
36244;DHT22;22284;49.956;19.816;2022-11-20T16:39:59;2.37;72.83
36244;DHT22;22284;49.956;19.816;2022-11-20T16:43:12;2.40;72.84
36244;DHT22;22284;49.956;19.816;2022-11-20T16:46:10;2.47;72.87
36244;DHT22;22284;49.956;19.816;2022-11-20T16:49:14;2.48;72.80
36244;DHT22;22284;49.956;19.816;2022-11-20T16:52:14;2.52;72.86
36244;DHT22;22284;49.956;19.816;2022-11-20T16:55:16;2.51;72.89
36244;DHT22;22284;49.956;19.816;2022-11-20T16:58:17;2.54;72.95
36244;DHT22;22284;49.956;19.816;2022-11-20T17:01:21;2.52;72.91
36244;DHT22;22284;49.956;19.816;2022-11-20T17:04:22;2.54;72.90
36244;DHT22;22284;49.956;19.816;2022-11-20T17:07:23;2.55;72.97
36244;DHT22;22284;49.956;19.816;2022-11-20T17:10:24;2.54;73.03
36244;DHT22;22284;49.956;19.816;2022-11-20T17:13:25;2.57;73.10
36244;DHT22;22284;49.956;19.816;2022-11-20T17:16:26;2.60;73.05
36244;DHT22;22284;49.956;19.816;2022-11-20T17:19:28;2.62;73.11
36244;DHT22;22284;49.956;19.816;2022-11-20T17:22:30;2.61;73.01
36244;DHT22;22284;49.956;19.816;2022-11-20T17:25:32;2.60;73.09
36244;DHT22;22284;49.956;19.816;2022-11-20T17:28:35;2.57;73.14
36244;DHT22;22284;49.956;19.816;2022-11-20T17:31:37;2.54;73.22
36244;DHT22;22284;49.956;19.816;2022-11-20T17:34:38;2.57;73.27
36244;DHT22;22284;49.956;19.816;2022-11-20T17:37:39;2.55;73.22
36244;DHT22;22284;49.956;19.816;2022-11-20T17:40:40;2.52;73.12
36244;DHT22;22284;49.956;19.816;2022-11-20T17:43:42;2.51;73.17
36244;DHT22;22284;49.956;19.816;2022-11-20T17:46:43;2.51;73.23
36244;DHT22;22284;49.956;19.816;2022-11-20T17:49:44;2.48;73.33
36244;DHT22;22284;49.956;19.816;2022-11-20T17:52:45;2.48;73.40
36244;DHT22;22284;49.956;19.816;2022-11-20T17:55:54;2.44;73.43
36244;DHT22;22284;49.956;19.816;2022-11-20T17:59:13;2.43;73.51
36244;DHT22;22284;49.956;19.816;2022-11-20T18:02:14;2.43;73.57
36244;DHT22;22284;49.956;19.816;2022-11-20T18:05:15;2.41;73.56
36244;DHT22;22284;49.956;19.816;2022-11-20T18:08:16;2.41;73.54
36244;DHT22;22284;49.956;19.816;2022-11-20T18:11:27;2.38;73.53
36244;DHT22;22284;49.956;19.816;2022-11-20T18:14:29;2.37;73.49
36244;DHT22;22284;49.956;19.816;2022-11-20T18:17:32;2.37;73.42
36244;DHT22;22284;49.956;19.816;2022-11-20T18:20:34;2.36;73.42
36244;DHT22;22284;49.956;19.816;2022-11-20T18:23:35;2.40;73.39
36244;DHT22;22284;49.956;19.816;2022-11-20T18:26:37;2.40;73.30
36244;DHT22;22284;49.956;19.816;2022-11-20T18:29:38;2.41;73.32
36244;DHT22;22284;49.956;19.816;2022-11-20T18:32:39;2.43;73.30
36244;DHT22;22284;49.956;19.816;2022-11-20T18:35:40;2.44;73.41
36244;DHT22;22284;49.956;19.816;2022-11-20T18:38:45;2.44;73.39
36244;DHT22;22284;49.956;19.816;2022-11-20T18:41:46;2.40;73.35
36244;DHT22;22284;49.956;19.816;2022-11-20T18:45:06;2.38;73.28
36244;DHT22;22284;49.956;19.816;2022-11-20T18:48:07;2.34;73.17
36244;DHT22;22284;49.956;19.816;2022-11-20T18:51:08;2.34;73.12
36244;DHT22;22284;49.956;19.816;2022-11-20T18:54:12;2.32;73.03
36244;DHT22;22284;49.956;19.816;2022-11-20T18:57:16;2.30;72.91
36244;DHT22;22284;49.956;19.816;2022-11-20T19:00:17;2.27;72.81
36244;DHT22;22284;49.956;19.816;2022-11-20T19:03:18;2.23;72.72
36244;DHT22;22284;49.956;19.816;2022-11-20T19:06:19;2.17;72.59
36244;DHT22;22284;49.956;19.816;2022-11-20T19:09:22;2.14;72.40
36244;DHT22;22284;49.956;19.816;2022-11-20T19:12:23;2.06;72.40
36244;DHT22;22284;49.956;19.816;2022-11-20T19:15:24;2.02;72.47
36244;DHT22;22284;49.956;19.816;2022-11-20T19:18:27;1.90;72.18
36244;DHT22;22284;49.956;19.816;2022-11-20T19:21:28;1.86;72.33
36244;DHT22;22284;49.956;19.816;2022-11-20T19:24:29;1.86;72.47
36244;DHT22;22284;49.956;19.816;2022-11-20T19:27:30;1.82;72.41
36244;DHT22;22284;49.956;19.816;2022-11-20T19:30:32;1.79;72.41
36244;DHT22;22284;49.956;19.816;2022-11-20T19:33:33;1.78;72.32
36244;DHT22;22284;49.956;19.816;2022-11-20T19:36:36;1.72;72.32
36244;DHT22;22284;49.956;19.816;2022-11-20T19:39:38;1.68;72.22
36244;DHT22;22284;49.956;19.816;2022-11-20T19:42:38;1.68;72.15
36244;DHT22;22284;49.956;19.816;2022-11-20T19:45:40;1.64;72.12
36244;DHT22;22284;49.956;19.816;2022-11-20T19:48:41;1.62;72.10
36244;DHT22;22284;49.956;19.816;2022-11-20T19:51:47;1.57;72.07
36244;DHT22;22284;49.956;19.816;2022-11-20T19:54:49;1.53;71.98
36244;DHT22;22284;49.956;19.816;2022-11-20T19:57:49;1.47;71.99
36244;DHT22;22284;49.956;19.816;2022-11-20T20:00:50;1.42;72.05
36244;DHT22;22284;49.956;19.816;2022-11-20T20:03:52;1.40;72.28
36244;DHT22;22284;49.956;19.816;2022-11-20T20:06:53;1.39;72.33
36244;DHT22;22284;49.956;19.816;2022-11-20T20:09:54;1.37;72.27
36244;DHT22;22284;49.956;19.816;2022-11-20T20:12:55;1.40;72.15
36244;DHT22;22284;49.956;19.816;2022-11-20T20:15:57;1.36;72.18
36244;DHT22;22284;49.956;19.816;2022-11-20T20:19:00;1.40;72.21
36244;DHT22;22284;49.956;19.816;2022-11-20T20:22:02;1.39;72.26
36244;DHT22;22284;49.956;19.816;2022-11-20T20:25:03;1.40;72.28
36244;DHT22;22284;49.956;19.816;2022-11-20T20:28:05;1.34;72.32